createdAt,value
2022-12-25T00:02:00.063Z,2.47
2022-12-25T00:04:03.867Z,2.90
2022-12-25T00:06:07.675Z,2.80
2022-12-25T00:08:11.935Z,3.00
2022-12-25T00:10:15.659Z,3.15
2022-12-25T00:12:22.468Z,2.70
2022-12-25T00:14:25.987Z,2.67
2022-12-25T00:16:29.588Z,4.40
2022-12-25T00:18:33.209Z,2.28
2022-12-25T00:20:36.827Z,2.40
2022-12-25T00:22:40.493Z,2.38
2022-12-25T00:24:44.372Z,2.58
2022-12-25T00:26:48.066Z,3.60
2022-12-25T00:28:54.963Z,2.65
2022-12-25T00:30:59.013Z,2.75
2022-12-25T00:33:02.767Z,2.55
2022-12-25T00:35:07.316Z,3.10
2022-12-25T00:37:10.980Z,2.85
2022-12-25T00:39:14.690Z,3.15
2022-12-25T00:41:39.274Z,3.15
2022-12-25T00:43:43.157Z,2.75
2022-12-25T00:45:55.395Z,2.00
2022-12-25T00:47:59.065Z,2.50
2022-12-25T00:50:02.773Z,2.30
2022-12-25T00:52:07.001Z,2.70
2022-12-25T00:54:10.932Z,2.97
2022-12-25T00:56:18.013Z,2.55
2022-12-25T00:58:22.002Z,2.17
2022-12-25T01:00:25.783Z,3.35
2022-12-25T01:02:31.036Z,2.90
2022-12-25T01:04:35.035Z,2.50
2022-12-25T01:06:38.720Z,2.30
2022-12-25T01:09:03.607Z,2.28
2022-12-25T01:11:07.542Z,2.15
2022-12-25T01:13:12.459Z,2.30
2022-12-25T01:15:16.135Z,2.25
2022-12-25T01:17:19.856Z,1.65
2022-12-25T01:19:24.906Z,2.28
2022-12-25T01:21:28.483Z,2.25
2022-12-25T01:23:32.059Z,2.15
2022-12-25T01:25:35.861Z,1.98
2022-12-25T01:27:39.469Z,2.65
2022-12-25T01:29:43.160Z,2.22
2022-12-25T01:31:46.796Z,2.20
2022-12-25T01:33:50.560Z,2.40
2022-12-25T01:35:59.173Z,2.20
2022-12-25T01:38:03.344Z,1.92
2022-12-25T01:40:07.600Z,2.88
2022-12-25T01:42:17.023Z,2.17
2022-12-25T01:44:39.465Z,2.10
2022-12-25T01:46:43.283Z,1.60
2022-12-25T01:48:47.916Z,2.25
2022-12-25T01:50:54.041Z,2.10
2022-12-25T01:52:59.794Z,2.60
2022-12-25T01:55:05.600Z,1.67
2022-12-25T01:57:11.290Z,1.60
2022-12-25T01:59:15.910Z,1.73
2022-12-25T02:01:19.757Z,2.42
2022-12-25T02:03:23.891Z,1.63
2022-12-25T02:05:29.777Z,2.17
2022-12-25T02:07:35.330Z,1.90
2022-12-25T02:09:40.372Z,2.45
2022-12-25T02:11:59.346Z,1.50
2022-12-25T02:14:04.135Z,1.90
2022-12-25T02:16:10.871Z,2.08
2022-12-25T02:18:17.879Z,2.22
2022-12-25T02:20:35.537Z,1.92
2022-12-25T02:22:45.969Z,2.05
2022-12-25T02:24:56.351Z,2.25
2022-12-25T02:27:06.881Z,2.70
2022-12-25T02:29:17.482Z,2.13
2022-12-25T02:31:24.157Z,2.47
2022-12-25T02:33:48.313Z,1.90
2022-12-25T02:35:54.445Z,2.40
2022-12-25T02:38:03.469Z,2.35
2022-12-25T02:40:10.552Z,2.67
2022-12-25T02:42:16.252Z,2.30
2022-12-25T02:44:39.963Z,2.60
2022-12-25T02:47:01.614Z,2.40
2022-12-25T02:49:25.278Z,1.95
2022-12-25T02:51:47.589Z,2.38
2022-12-25T02:54:19.355Z,2.45
2022-12-25T02:56:42.415Z,3.30
2022-12-25T02:59:04.426Z,2.38
2022-12-25T03:01:29.257Z,2.35
2022-12-25T03:03:52.200Z,2.35
2022-12-25T03:06:16.472Z,2.60
2022-12-25T03:08:21.385Z,3.47
2022-12-25T03:10:43.106Z,2.55
2022-12-25T03:12:47.418Z,3.45
2022-12-25T03:15:08.384Z,2.60
2022-12-25T03:17:13.577Z,2.72
2022-12-25T03:19:31.067Z,2.50
2022-12-25T03:21:52.191Z,2.53
2022-12-25T03:24:27.052Z,2.67
2022-12-25T03:26:48.543Z,1.98
2022-12-25T03:28:52.235Z,3.28
2022-12-25T03:31:11.659Z,2.33
2022-12-25T03:33:43.967Z,2.58
2022-12-25T03:35:47.376Z,2.67
2022-12-25T03:38:13.907Z,2.53
2022-12-25T03:40:48.115Z,2.00
2022-12-25T03:43:12.871Z,2.20
2022-12-25T03:45:37.087Z,2.63
2022-12-25T03:48:02.012Z,2.03
2022-12-25T03:50:28.111Z,2.30
2022-12-25T03:52:50.044Z,3.05
2022-12-25T03:55:13.908Z,2.10
2022-12-25T03:57:35.093Z,2.30
2022-12-25T03:59:56.227Z,2.17
2022-12-25T04:02:17.705Z,2.25
2022-12-25T04:04:38.873Z,2.55
2022-12-25T04:07:01.417Z,2.45
2022-12-25T04:09:24.932Z,2.45
2022-12-25T04:11:46.174Z,2.15
2022-12-25T04:14:07.103Z,2.28
2022-12-25T04:16:28.128Z,1.88
2022-12-25T04:18:49.393Z,2.35
2022-12-25T04:21:10.609Z,1.75
2022-12-25T04:23:33.043Z,1.90
2022-12-25T04:25:54.555Z,1.65
2022-12-25T04:28:19.824Z,1.70
2022-12-25T04:30:41.071Z,2.35
2022-12-25T04:33:02.105Z,2.05
2022-12-25T04:35:23.798Z,2.20
2022-12-25T04:37:27.760Z,2.22
2022-12-25T04:39:32.739Z,2.10
2022-12-25T04:41:36.339Z,2.10
2022-12-25T04:43:39.852Z,2.30
2022-12-25T04:45:43.834Z,2.25
2022-12-25T04:47:47.529Z,2.40
2022-12-25T04:49:51.129Z,1.80
2022-12-25T04:51:54.756Z,1.98
2022-12-25T04:53:58.644Z,1.92
2022-12-25T04:56:04.584Z,1.50
2022-12-25T04:58:08.231Z,1.92
2022-12-25T05:00:12.499Z,2.53
2022-12-25T05:02:16.978Z,2.05
2022-12-25T05:04:20.815Z,2.22
2022-12-25T05:06:24.465Z,1.92
2022-12-25T05:08:27.364Z,1.83
2022-12-25T05:10:31.121Z,2.05
2022-12-25T05:12:36.124Z,2.30
2022-12-25T05:14:40.337Z,1.90
2022-12-25T05:16:43.934Z,2.15
2022-12-25T05:18:50.091Z,1.90
2022-12-25T05:20:54.309Z,2.45
2022-12-25T05:22:57.960Z,2.10
2022-12-25T05:25:01.554Z,2.50
2022-12-25T05:27:05.659Z,2.47
2022-12-25T05:29:10.636Z,2.83
2022-12-25T05:31:14.407Z,2.38
2022-12-25T05:33:18.152Z,2.30
2022-12-25T05:35:21.899Z,2.22
2022-12-25T05:37:25.641Z,2.47
2022-12-25T05:39:29.343Z,2.60
2022-12-25T05:41:34.826Z,1.65
2022-12-25T05:43:38.624Z,2.47
2022-12-25T05:45:47.566Z,2.08
2022-12-25T05:47:51.126Z,2.10
2022-12-25T05:49:54.807Z,2.10
2022-12-25T05:51:58.433Z,1.75
2022-12-25T05:54:02.360Z,2.70
2022-12-25T05:56:06.452Z,1.83
2022-12-25T05:58:11.999Z,2.60
2022-12-25T06:00:16.175Z,2.42
2022-12-25T06:02:21.147Z,2.35
2022-12-25T06:04:24.800Z,1.70
2022-12-25T06:06:28.503Z,2.38
2022-12-25T06:08:32.157Z,2.22
2022-12-25T06:10:35.734Z,2.13
2022-12-25T06:12:39.388Z,2.30
2022-12-25T06:14:42.887Z,1.75
2022-12-25T06:16:46.628Z,2.13
2022-12-25T06:18:53.188Z,2.38
2022-12-25T06:20:56.677Z,2.30
2022-12-25T06:23:00.350Z,2.88
2022-12-25T06:25:03.893Z,2.40
2022-12-25T06:27:07.462Z,2.20
2022-12-25T06:29:11.132Z,3.50
2022-12-25T06:31:16.256Z,2.15
2022-12-25T06:33:19.867Z,2.65
2022-12-25T06:35:24.790Z,1.85
2022-12-25T06:37:28.389Z,2.50
2022-12-25T06:39:32.264Z,2.45
2022-12-25T06:41:35.885Z,1.58
2022-12-25T06:43:39.693Z,1.73
2022-12-25T06:45:43.508Z,3.33
2022-12-25T06:47:47.098Z,3.33
2022-12-25T06:49:50.802Z,2.00
2022-12-25T06:51:55.955Z,1.75
2022-12-25T06:54:03.205Z,1.80
2022-12-25T06:56:07.427Z,2.25
2022-12-25T06:58:11.015Z,2.15
2022-12-25T07:00:15.160Z,1.77
2022-12-25T07:02:19.747Z,1.83
2022-12-25T07:04:28.976Z,1.63
2022-12-25T07:06:33.084Z,1.92
2022-12-25T07:08:42.261Z,2.28
2022-12-25T07:10:45.862Z,2.45
2022-12-25T07:12:49.609Z,2.20
2022-12-25T07:14:55.586Z,1.98
2022-12-25T07:16:59.224Z,2.30
2022-12-25T07:19:02.977Z,1.90
2022-12-25T07:21:10.587Z,1.35
2022-12-25T07:23:14.307Z,1.55
2022-12-25T07:25:19.386Z,1.60
2022-12-25T07:27:23.069Z,2.25
2022-12-25T07:29:26.748Z,1.90
2022-12-25T07:31:30.514Z,1.83
2022-12-25T07:33:35.066Z,1.83
2022-12-25T07:35:38.855Z,1.95
2022-12-25T07:37:42.417Z,2.17
2022-12-25T07:39:46.125Z,1.55
2022-12-25T07:41:51.479Z,2.15
2022-12-25T07:43:55.670Z,2.25
2022-12-25T07:46:00.546Z,2.45
2022-12-25T07:48:05.769Z,1.60
2022-12-25T07:50:11.480Z,1.67
2022-12-25T07:52:15.380Z,1.60
2022-12-25T07:54:19.136Z,1.65
2022-12-25T07:56:22.800Z,2.10
2022-12-25T07:58:27.957Z,2.15
2022-12-25T08:00:32.864Z,2.13
2022-12-25T08:02:36.783Z,2.00
2022-12-25T08:04:41.597Z,2.08
2022-12-25T08:06:45.400Z,1.80
2022-12-25T08:08:52.851Z,2.10
2022-12-25T08:11:05.595Z,2.83
2022-12-25T08:13:14.356Z,1.48
2022-12-25T08:15:19.953Z,2.35
2022-12-25T08:17:26.551Z,1.90
2022-12-25T08:19:33.594Z,1.45
2022-12-25T08:21:37.412Z,1.35
2022-12-25T08:23:41.922Z,2.00
2022-12-25T08:25:45.613Z,2.05
2022-12-25T08:27:49.603Z,2.08
2022-12-25T08:29:53.241Z,1.90
2022-12-25T08:31:59.660Z,2.07
2022-12-25T08:34:04.587Z,2.10
2022-12-25T08:36:11.371Z,2.93
2022-12-25T08:38:15.167Z,2.28
2022-12-25T08:40:18.862Z,1.83
2022-12-25T08:42:22.408Z,1.90
2022-12-25T08:44:26.159Z,2.45
2022-12-25T08:46:30.029Z,1.70
2022-12-25T08:48:35.014Z,2.37
2022-12-25T08:50:38.719Z,2.00
2022-12-25T08:52:42.284Z,1.70
2022-12-25T08:54:45.984Z,2.10
2022-12-25T08:56:49.684Z,1.90
2022-12-25T08:58:53.308Z,2.20
2022-12-25T09:00:56.932Z,1.67
2022-12-25T09:03:00.748Z,5.33
2022-12-25T09:05:06.127Z,5.13
2022-12-25T09:07:09.721Z,2.00
2022-12-25T09:09:17.053Z,2.40
2022-12-25T09:11:21.626Z,2.03
2022-12-25T09:13:25.322Z,2.83
2022-12-25T09:15:29.052Z,2.30
2022-12-25T09:17:33.025Z,2.43
2022-12-25T09:19:36.828Z,1.73
2022-12-25T09:21:41.972Z,2.10
2022-12-25T09:23:45.876Z,1.63
2022-12-25T09:25:49.565Z,1.70
2022-12-25T09:27:53.265Z,2.10
2022-12-25T09:29:57.068Z,2.70
2022-12-25T09:32:00.769Z,3.13
2022-12-25T09:34:04.575Z,1.93
2022-12-25T09:36:09.141Z,3.17
2022-12-25T09:38:15.049Z,2.57
2022-12-25T09:40:19.557Z,2.30
2022-12-25T09:42:25.060Z,2.20
2022-12-25T09:44:30.536Z,2.07
2022-12-25T09:46:38.843Z,2.67
2022-12-25T09:48:44.413Z,3.33
2022-12-25T09:50:49.858Z,2.80
2022-12-25T09:52:57.568Z,2.17
2022-12-25T09:55:05.939Z,3.40
2022-12-25T09:57:12.317Z,2.90
2022-12-25T09:59:20.497Z,4.33
2022-12-25T10:01:31.255Z,3.33
2022-12-25T10:03:45.126Z,3.40
2022-12-25T10:05:57.850Z,3.07
2022-12-25T10:08:04.586Z,2.33
2022-12-25T10:10:16.371Z,2.00
2022-12-25T10:12:27.454Z,1.60
2022-12-25T10:14:36.272Z,2.77
2022-12-25T10:16:45.129Z,1.70
2022-12-25T10:18:53.735Z,1.83
2022-12-25T10:20:58.528Z,2.40
2022-12-25T10:23:03.879Z,2.30
2022-12-25T10:25:08.141Z,2.13
2022-12-25T10:27:16.885Z,1.57
2022-12-25T10:29:21.412Z,1.63
2022-12-25T10:31:26.403Z,1.87
2022-12-25T10:33:30.452Z,2.00
2022-12-25T10:35:34.285Z,1.43
2022-12-25T10:37:38.995Z,1.63
2022-12-25T10:39:46.641Z,1.90
2022-12-25T10:42:03.291Z,1.63
2022-12-25T10:44:20.396Z,1.50
2022-12-25T10:46:24.956Z,1.23
2022-12-25T10:48:29.728Z,1.30
2022-12-25T10:50:34.149Z,1.17
2022-12-25T10:52:38.385Z,1.50
2022-12-25T10:54:43.528Z,1.33
2022-12-25T10:56:54.247Z,1.67
2022-12-25T10:59:12.119Z,1.93
2022-12-25T11:01:17.369Z,2.50
2022-12-25T11:03:25.417Z,2.27
2022-12-25T11:05:30.368Z,1.90
2022-12-25T11:07:34.895Z,1.77
2022-12-25T11:09:38.516Z,1.63
2022-12-25T11:11:43.021Z,2.03
2022-12-25T11:13:50.578Z,1.90
2022-12-25T11:16:03.789Z,2.10
2022-12-25T11:18:19.382Z,1.60
2022-12-25T11:20:23.802Z,1.70
2022-12-25T11:22:31.515Z,1.80
2022-12-25T11:24:36.210Z,1.77
2022-12-25T11:26:49.016Z,2.20
2022-12-25T11:28:53.256Z,2.30
2022-12-25T11:30:58.529Z,2.30
2022-12-25T11:33:04.702Z,2.50
2022-12-25T11:35:13.694Z,2.00
2022-12-25T11:37:18.875Z,1.77
2022-12-25T11:39:25.489Z,2.70
2022-12-25T11:41:33.280Z,3.30
2022-12-25T11:43:40.161Z,2.10
2022-12-25T11:45:46.139Z,2.33
2022-12-25T11:47:52.424Z,2.57
2022-12-25T11:50:00.753Z,2.57
2022-12-25T11:52:07.753Z,2.80
2022-12-25T11:54:16.744Z,3.27
2022-12-25T11:56:22.389Z,3.23
2022-12-25T11:58:30.740Z,3.60
2022-12-25T12:00:36.046Z,3.00
2022-12-25T12:02:44.136Z,3.13
2022-12-25T12:04:50.054Z,2.90
2022-12-25T12:06:55.667Z,3.10
2022-12-25T12:09:03.732Z,2.57
2022-12-25T12:11:17.932Z,3.40
2022-12-25T12:13:27.309Z,3.60
2022-12-25T12:15:32.750Z,3.40
2022-12-25T12:17:36.493Z,3.10
2022-12-25T12:19:40.190Z,2.43
2022-12-25T12:21:44.241Z,3.20
2022-12-25T12:23:50.992Z,2.47
2022-12-25T12:25:56.397Z,2.00
2022-12-25T12:28:05.325Z,3.00
2022-12-25T12:30:23.494Z,1.80
2022-12-25T12:32:34.317Z,1.70
2022-12-25T12:34:48.093Z,2.20
2022-12-25T12:36:52.463Z,2.37
2022-12-25T12:38:57.443Z,1.83
2022-12-25T12:41:03.319Z,1.97
2022-12-25T12:43:07.756Z,1.60
2022-12-25T12:45:12.470Z,2.07
2022-12-25T12:47:30.447Z,1.50
2022-12-25T12:49:34.637Z,2.07
2022-12-25T12:51:39.026Z,2.00
2022-12-25T12:53:43.499Z,2.00
2022-12-25T12:55:47.171Z,2.83
2022-12-25T12:57:59.602Z,2.07
2022-12-25T13:00:10.864Z,1.70
2022-12-25T13:02:25.808Z,2.43
2022-12-25T13:04:49.335Z,2.03
2022-12-25T13:06:57.114Z,2.43
2022-12-25T13:09:05.779Z,2.20
2022-12-25T13:11:18.125Z,2.20
2022-12-25T13:13:25.790Z,1.90
2022-12-25T13:15:30.926Z,2.00
2022-12-25T13:17:34.801Z,1.40
2022-12-25T13:19:39.433Z,1.80
2022-12-25T13:21:43.044Z,2.10
2022-12-25T13:23:46.745Z,2.30
2022-12-25T13:25:53.819Z,2.10
2022-12-25T13:27:58.100Z,2.40
2022-12-25T13:30:13.237Z,2.40
2022-12-25T13:32:21.081Z,2.50
2022-12-25T13:34:29.630Z,1.77
2022-12-25T13:36:38.146Z,2.03
2022-12-25T13:38:45.644Z,2.10
2022-12-25T13:41:06.919Z,2.20
2022-12-25T13:43:12.483Z,2.03
2022-12-25T13:45:24.551Z,2.33
2022-12-25T13:47:28.999Z,2.90
2022-12-25T13:49:33.039Z,2.13
2022-12-25T13:51:36.701Z,2.93
2022-12-25T13:53:40.273Z,3.20
2022-12-25T13:55:47.969Z,3.00
2022-12-25T13:57:53.775Z,4.27
2022-12-25T13:59:57.800Z,3.03
2022-12-25T14:02:02.980Z,3.30
2022-12-25T14:04:07.772Z,4.07
2022-12-25T14:06:18.967Z,2.93
2022-12-25T14:08:24.318Z,3.00
2022-12-25T14:10:29.447Z,2.60
2022-12-25T14:12:36.732Z,2.47
2022-12-25T14:14:43.768Z,3.40
2022-12-25T14:16:48.913Z,3.10
2022-12-25T14:18:54.378Z,2.90
2022-12-25T14:21:00.078Z,2.60
2022-12-25T14:23:03.648Z,3.43
2022-12-25T14:25:15.246Z,3.60
2022-12-25T14:27:20.160Z,3.10
2022-12-25T14:29:28.215Z,3.40
2022-12-25T14:31:33.185Z,2.73
2022-12-25T14:33:38.739Z,3.07
2022-12-25T14:35:44.034Z,2.77
2022-12-25T14:37:48.357Z,2.50
2022-12-25T14:40:01.707Z,2.73
2022-12-25T14:42:13.484Z,2.63
2022-12-25T14:44:30.399Z,3.60
2022-12-25T14:46:34.862Z,2.90
2022-12-25T14:48:38.513Z,3.57
2022-12-25T14:50:44.966Z,3.97
2022-12-25T14:52:48.594Z,3.70
2022-12-25T14:54:53.220Z,2.83
2022-12-25T14:56:57.323Z,3.60
2022-12-25T14:59:02.960Z,3.37
2022-12-25T15:01:07.219Z,3.27
2022-12-25T15:03:22.575Z,7.70
2022-12-25T15:05:33.769Z,12.10
2022-12-25T15:07:38.703Z,12.80
2022-12-25T15:09:42.364Z,13.93
2022-12-25T15:11:49.061Z,11.67
2022-12-25T15:13:55.837Z,11.70
2022-12-25T15:16:00.590Z,11.03
2022-12-25T15:18:05.835Z,4.00
2022-12-25T15:20:12.636Z,3.57
2022-12-25T15:22:16.263Z,5.27
2022-12-25T15:24:21.206Z,5.60
2022-12-25T15:26:24.860Z,5.30
2022-12-25T15:28:28.460Z,5.10
2022-12-25T15:30:33.724Z,3.60
2022-12-25T15:32:37.827Z,5.50
2022-12-25T15:34:41.523Z,4.03
2022-12-25T15:36:45.257Z,4.50
2022-12-25T15:38:48.913Z,4.43
2022-12-25T15:40:53.943Z,3.45
2022-12-25T15:42:57.600Z,4.60
2022-12-25T15:45:01.092Z,5.85
2022-12-25T15:47:04.744Z,6.10
2022-12-25T15:49:08.369Z,5.50
2022-12-25T15:51:11.895Z,6.18
2022-12-25T15:53:15.570Z,6.97
2022-12-25T15:55:19.373Z,6.43
2022-12-25T15:57:26.372Z,5.60
2022-12-25T15:59:29.876Z,8.30
2022-12-25T16:01:33.624Z,9.68
2022-12-25T16:03:37.404Z,9.20
2022-12-25T16:05:41.063Z,7.22
2022-12-25T16:07:44.953Z,9.57
2022-12-25T16:09:48.650Z,14.73
2022-12-25T16:11:52.659Z,14.60
2022-12-25T16:13:57.628Z,22.88
2022-12-25T16:16:01.567Z,32.65
2022-12-25T16:18:07.672Z,28.67
2022-12-25T16:20:11.954Z,22.23
2022-12-25T16:22:16.193Z,22.30
2022-12-25T16:24:19.868Z,21.85
2022-12-25T16:26:23.563Z,19.88
2022-12-25T16:28:27.354Z,20.10
2022-12-25T16:30:32.564Z,11.77
2022-12-25T16:32:36.220Z,9.25
2022-12-25T16:34:40.661Z,12.80
2022-12-25T16:36:44.522Z,11.52
2022-12-25T16:38:48.426Z,9.82
2022-12-25T16:40:56.914Z,13.10
2022-12-25T16:43:00.603Z,10.35
2022-12-25T16:45:04.204Z,8.73
2022-12-25T16:47:09.459Z,9.50
2022-12-25T16:49:16.300Z,9.77
2022-12-25T16:51:21.235Z,7.97
2022-12-25T16:53:24.798Z,8.25
2022-12-25T16:55:30.410Z,10.48
2022-12-25T16:57:34.242Z,21.95
2022-12-25T16:59:37.799Z,20.70
2022-12-25T17:01:43.582Z,13.02
2022-12-25T17:03:49.158Z,11.55
2022-12-25T17:05:52.740Z,15.45
2022-12-25T17:07:56.415Z,17.90
2022-12-25T17:10:00.097Z,15.18
2022-12-25T17:12:03.647Z,16.30
2022-12-25T17:14:07.476Z,19.65
2022-12-25T17:16:15.275Z,17.55
2022-12-25T17:18:22.186Z,15.82
2022-12-25T17:20:27.108Z,14.70
2022-12-25T17:22:30.703Z,11.75
2022-12-25T17:24:36.360Z,10.32
2022-12-25T17:26:41.536Z,13.60
2022-12-25T17:28:45.252Z,13.15
2022-12-25T17:30:48.846Z,15.73
2022-12-25T17:32:52.614Z,14.20
2022-12-25T17:34:56.451Z,12.65
2022-12-25T17:37:01.529Z,10.20
2022-12-25T17:39:06.935Z,10.60
2022-12-25T17:41:12.090Z,10.18
2022-12-25T17:43:20.589Z,6.65
2022-12-25T17:45:24.704Z,12.43
2022-12-25T17:47:28.429Z,13.85
2022-12-25T17:49:31.997Z,12.35
2022-12-25T17:51:35.553Z,11.07
2022-12-25T17:53:41.334Z,11.50
2022-12-25T17:55:45.132Z,11.50
2022-12-25T17:57:48.701Z,10.10
2022-12-25T17:59:52.340Z,12.32
2022-12-25T18:01:56.453Z,12.75
2022-12-25T18:04:00.745Z,9.55
2022-12-25T18:06:04.440Z,8.73
2022-12-25T18:08:08.126Z,11.27
2022-12-25T18:10:14.908Z,11.95
2022-12-25T18:12:18.606Z,11.73
2022-12-25T18:14:22.418Z,12.05
2022-12-25T18:16:27.219Z,12.30
2022-12-25T18:18:30.919Z,14.38
2022-12-25T18:20:39.626Z,18.08
2022-12-25T18:22:43.961Z,19.50
2022-12-25T18:24:47.559Z,14.20
2022-12-25T18:26:56.475Z,13.43
2022-12-25T18:29:00.130Z,16.25
2022-12-25T18:31:03.676Z,16.52
2022-12-25T18:33:07.499Z,16.33
2022-12-25T18:35:11.307Z,21.17
2022-12-25T18:37:15.023Z,18.77
2022-12-25T18:39:18.773Z,16.63
2022-12-25T18:41:23.056Z,13.95
2022-12-25T18:43:53.462Z,9.30
2022-12-25T18:45:57.525Z,15.88
2022-12-25T18:48:03.259Z,10.13
2022-12-25T18:50:11.388Z,9.55
2022-12-25T18:52:48.731Z,11.10
2022-12-25T18:54:38.798Z,11.32
2022-12-25T18:56:42.376Z,12.93
2022-12-25T18:58:47.716Z,14.05
2022-12-25T19:00:51.503Z,13.82
2022-12-25T19:02:58.319Z,12.05
2022-12-25T19:05:01.986Z,12.25
2022-12-25T19:07:05.623Z,14.82
2022-12-25T19:09:09.872Z,21.15
2022-12-25T19:11:13.439Z,26.17
2022-12-25T19:13:17.052Z,25.30
2022-12-25T19:15:22.048Z,22.85
2022-12-25T19:17:31.554Z,25.15
2022-12-25T19:19:35.845Z,24.33
2022-12-25T19:21:39.508Z,24.40
2022-12-25T19:23:43.167Z,30.23
2022-12-25T19:25:46.840Z,28.70
2022-12-25T19:27:50.513Z,29.23
2022-12-25T19:29:54.234Z,26.33
2022-12-25T19:31:59.394Z,24.38
2022-12-25T19:34:03.059Z,18.65
2022-12-25T19:36:07.653Z,17.08
2022-12-25T19:38:11.156Z,18.17
2022-12-25T19:40:14.884Z,15.50
2022-12-25T19:42:18.953Z,12.95
2022-12-25T19:44:22.576Z,16.40
2022-12-25T19:46:28.129Z,12.60
2022-12-25T19:48:33.948Z,8.70
2022-12-25T19:50:37.542Z,10.82
2022-12-25T19:52:41.101Z,11.88
2022-12-25T19:54:44.676Z,11.13
2022-12-25T19:56:48.339Z,9.77
2022-12-25T19:58:51.844Z,8.25
2022-12-25T20:00:59.021Z,7.43
2022-12-25T20:03:02.815Z,6.20
2022-12-25T20:05:08.425Z,5.93
2022-12-25T20:07:12.305Z,7.05
2022-12-25T20:09:19.763Z,8.05
2022-12-25T20:11:25.600Z,6.63
2022-12-25T20:13:29.141Z,6.75
2022-12-25T20:15:32.836Z,5.95
2022-12-25T20:17:36.534Z,5.38
2022-12-25T20:19:40.193Z,6.50
2022-12-25T20:21:46.120Z,6.18
2022-12-25T20:23:51.014Z,5.60
2022-12-25T20:25:54.616Z,6.00
2022-12-25T20:27:58.659Z,5.95
2022-12-25T20:30:02.287Z,5.35
2022-12-25T20:32:06.035Z,6.55
2022-12-25T20:34:10.630Z,5.97
2022-12-25T20:36:14.410Z,5.10
2022-12-25T20:38:19.335Z,5.00
2022-12-25T20:40:22.922Z,5.18
2022-12-25T20:42:26.790Z,5.18
2022-12-25T20:44:30.307Z,5.32
2022-12-25T20:46:34.384Z,5.25
2022-12-25T20:48:38.167Z,4.70
2022-12-25T20:50:41.824Z,5.07
2022-12-25T20:52:45.627Z,4.65
2022-12-25T20:54:50.937Z,4.45
2022-12-25T20:56:54.671Z,5.28
2022-12-25T20:58:58.837Z,5.72
2022-12-25T21:01:07.306Z,5.28
2022-12-25T21:03:11.219Z,5.88
2022-12-25T21:05:14.807Z,6.45
2022-12-25T21:07:18.458Z,6.15
2022-12-25T21:09:22.012Z,8.00
2022-12-25T21:11:27.083Z,9.20
2022-12-25T21:13:31.626Z,7.78
2022-12-25T21:15:35.335Z,7.25
2022-12-25T21:17:38.992Z,7.82
2022-12-25T21:19:42.597Z,7.15
2022-12-25T21:21:46.238Z,5.70
2022-12-25T21:23:49.813Z,5.57
2022-12-25T21:25:53.483Z,5.90
2022-12-25T21:27:58.543Z,5.43
2022-12-25T21:30:15.433Z,4.95
2022-12-25T21:32:37.267Z,5.32
2022-12-25T21:34:41.179Z,5.20
2022-12-25T21:36:45.861Z,4.60
2022-12-25T21:38:49.999Z,6.05
2022-12-25T21:40:53.461Z,5.45
2022-12-25T21:43:00.503Z,5.07
2022-12-25T21:45:04.171Z,5.25
2022-12-25T21:47:07.793Z,5.07
2022-12-25T21:49:12.557Z,4.55
2022-12-25T21:51:35.734Z,4.57
2022-12-25T21:53:42.607Z,4.10
2022-12-25T21:55:58.409Z,3.83
2022-12-25T21:58:06.611Z,3.78
2022-12-25T22:00:11.093Z,4.95
2022-12-25T22:02:15.030Z,5.45
2022-12-25T22:04:19.670Z,4.10
2022-12-25T22:06:40.703Z,3.67
2022-12-25T22:08:44.378Z,3.13
2022-12-25T22:10:48.041Z,3.47
2022-12-25T22:13:09.459Z,3.30
2022-12-25T22:15:13.757Z,3.70
2022-12-25T22:17:35.138Z,3.83
2022-12-25T22:19:57.921Z,3.35
2022-12-25T22:22:01.819Z,2.95
2022-12-25T22:24:07.221Z,4.28
2022-12-25T22:26:13.397Z,2.83
2022-12-25T22:28:21.035Z,3.90
2022-12-25T22:30:27.272Z,3.80
2022-12-25T22:32:30.965Z,3.65
2022-12-25T22:34:34.600Z,2.95
2022-12-25T22:36:38.322Z,3.60
2022-12-25T22:38:43.892Z,3.17
2022-12-25T22:40:47.713Z,3.78
2022-12-25T22:42:51.309Z,3.45
2022-12-25T22:44:55.030Z,3.72
2022-12-25T22:47:00.213Z,3.70
2022-12-25T22:49:03.737Z,3.60
2022-12-25T22:51:07.570Z,2.75
2022-12-25T22:53:11.176Z,3.53
2022-12-25T22:55:17.766Z,2.92
2022-12-25T22:57:21.337Z,3.15
2022-12-25T22:59:25.134Z,3.72
2022-12-25T23:01:28.833Z,3.20
2022-12-25T23:03:33.973Z,3.10
2022-12-25T23:05:37.581Z,3.78
2022-12-25T23:07:42.004Z,4.10
2022-12-25T23:09:45.984Z,3.20
2022-12-25T23:11:49.578Z,3.28
2022-12-25T23:14:10.555Z,3.03
2022-12-25T23:16:15.160Z,3.10
2022-12-25T23:18:36.265Z,2.83
2022-12-25T23:20:58.785Z,3.03
2022-12-25T23:23:19.890Z,2.30
2022-12-25T23:25:40.874Z,3.35
2022-12-25T23:27:44.884Z,3.30
2022-12-25T23:29:47.440Z,2.60
2022-12-25T23:31:53.793Z,3.38
2022-12-25T23:33:57.499Z,2.85
2022-12-25T23:36:02.518Z,3.30
2022-12-25T23:38:06.132Z,3.65
2022-12-25T23:40:10.652Z,2.47
2022-12-25T23:42:14.279Z,3.33
2022-12-25T23:44:17.855Z,2.78
2022-12-25T23:46:21.755Z,3.20
2022-12-25T23:48:25.446Z,2.50
2022-12-25T23:50:28.984Z,2.70
2022-12-25T23:52:33.989Z,3.20
2022-12-25T23:54:37.676Z,2.72
2022-12-25T23:56:41.396Z,2.80
2022-12-25T23:58:51.503Z,1.90
